createdAt,value
2023-01-04T00:01:17.828Z,101423.38
2023-01-04T00:03:44.936Z,101412.66
2023-01-04T00:06:16.290Z,101411.00
2023-01-04T00:08:43.664Z,101405.03
2023-01-04T00:11:19.406Z,101407.34
2023-01-04T00:13:50.013Z,101405.84
2023-01-04T00:16:19.679Z,101401.63
2023-01-04T00:18:47.268Z,101400.13
2023-01-04T00:21:19.403Z,101407.97
2023-01-04T00:23:48.241Z,101401.34
2023-01-04T00:26:21.611Z,101406.88
2023-01-04T00:28:54.040Z,101405.31
2023-01-04T00:31:22.280Z,101404.00
2023-01-04T00:33:49.496Z,101403.19
2023-01-04T00:36:16.934Z,101404.97
2023-01-04T00:38:44.061Z,101405.63
2023-01-04T00:41:34.460Z,101415.94
2023-01-04T00:43:59.936Z,101412.72
2023-01-04T00:46:26.767Z,101414.56
2023-01-04T00:48:58.177Z,101416.47
2023-01-04T00:51:28.023Z,101419.31
2023-01-04T00:53:54.785Z,101416.03
2023-01-04T00:56:21.630Z,101423.09
2023-01-04T00:58:48.366Z,101425.91
2023-01-04T01:01:15.398Z,101431.06
2023-01-04T01:03:44.634Z,101424.81
2023-01-04T01:06:12.556Z,101433.34
2023-01-04T01:08:39.798Z,101426.56
2023-01-04T01:11:11.072Z,101430.34
2023-01-04T01:13:38.713Z,101443.34
2023-01-04T01:16:07.537Z,101437.50
2023-01-04T01:18:35.474Z,101440.09
2023-01-04T01:21:09.815Z,101435.19
2023-01-04T01:23:37.015Z,101431.06
2023-01-04T01:26:06.049Z,101435.41
2023-01-04T01:28:34.047Z,101427.81
2023-01-04T01:31:08.703Z,101431.50
2023-01-04T01:33:40.532Z,101423.31
2023-01-04T01:36:09.173Z,101434.53
2023-01-04T01:38:36.755Z,101432.78
2023-01-04T01:41:03.990Z,101430.34
2023-01-04T01:44:06.944Z,101431.47
2023-01-04T01:46:46.994Z,101428.44
2023-01-04T01:49:37.598Z,101433.25
2023-01-04T01:52:08.043Z,101424.31
2023-01-04T01:54:42.821Z,101426.06
2023-01-04T01:57:13.777Z,101422.69
2023-01-04T01:59:42.919Z,101423.63
2023-01-04T02:02:10.899Z,101419.41
2023-01-04T02:04:43.231Z,101430.66
2023-01-04T02:07:13.276Z,101426.81
2023-01-04T02:09:40.831Z,101429.28
2023-01-04T02:12:12.695Z,101426.97
2023-01-04T02:14:42.369Z,101422.75
2023-01-04T02:17:45.127Z,101419.03
2023-01-04T02:20:27.489Z,101414.81
2023-01-04T02:23:00.088Z,101399.97
2023-01-04T02:25:45.087Z,101407.81
2023-01-04T02:28:36.247Z,101401.53
2023-01-04T02:31:30.110Z,101401.53
2023-01-04T02:33:56.951Z,101403.56
2023-01-04T02:36:23.620Z,101406.28
2023-01-04T02:39:29.255Z,101405.41
2023-01-04T02:42:54.366Z,101401.78
2023-01-04T02:45:25.189Z,101402.72
2023-01-04T02:48:11.337Z,101399.22
2023-01-04T02:50:54.953Z,101393.84
2023-01-04T02:53:23.780Z,101393.25
2023-01-04T02:55:50.402Z,101389.19
2023-01-04T02:58:56.651Z,101392.28
2023-01-04T03:02:06.478Z,101389.22
2023-01-04T03:05:36.407Z,101387.88
2023-01-04T03:08:23.338Z,101389.28
2023-01-04T03:10:50.111Z,101388.13
2023-01-04T03:13:25.735Z,101392.78
2023-01-04T03:15:55.536Z,101391.03
2023-01-04T03:18:27.798Z,101393.59
2023-01-04T03:20:58.748Z,101387.66
2023-01-04T03:23:48.983Z,101381.44
2023-01-04T03:26:46.727Z,101379.81
2023-01-04T03:29:55.759Z,101380.88
2023-01-04T03:33:13.749Z,101382.75
2023-01-04T03:35:56.054Z,101370.69
2023-01-04T03:39:06.995Z,101375.19
2023-01-04T03:42:04.341Z,101377.34
2023-01-04T03:44:52.643Z,101378.53
2023-01-04T03:48:17.863Z,101363.81
2023-01-04T03:50:56.590Z,101371.97
2023-01-04T03:53:24.404Z,101361.47
2023-01-04T03:55:52.758Z,101362.16
2023-01-04T03:58:20.494Z,101367.28
2023-01-04T04:00:48.421Z,101368.25
2023-01-04T04:03:15.330Z,101364.72
2023-01-04T04:06:02.799Z,101366.34
2023-01-04T04:08:29.918Z,101364.72
2023-01-04T04:11:22.255Z,101366.47
2023-01-04T04:13:50.499Z,101359.22
2023-01-04T04:16:18.265Z,101356.53
2023-01-04T04:18:45.179Z,101355.72
2023-01-04T04:21:11.933Z,101354.91
2023-01-04T04:23:38.639Z,101357.59
2023-01-04T04:26:05.574Z,101355.97
2023-01-04T04:28:32.768Z,101364.97
2023-01-04T04:30:59.570Z,101354.78
2023-01-04T04:33:26.429Z,101357.00
2023-01-04T04:35:55.090Z,101363.91
2023-01-04T04:38:23.031Z,101357.47
2023-01-04T04:41:08.373Z,101359.16
2023-01-04T04:43:35.659Z,101360.25
2023-01-04T04:46:02.978Z,101364.59
2023-01-04T04:48:29.865Z,101348.28
2023-01-04T04:50:56.692Z,101364.63
2023-01-04T04:53:23.669Z,101361.25
2023-01-04T04:55:54.243Z,101358.06
2023-01-04T04:58:21.500Z,101369.53
2023-01-04T05:00:48.308Z,101363.72
2023-01-04T05:03:15.217Z,101362.31
2023-01-04T05:05:42.409Z,101358.34
2023-01-04T05:08:09.387Z,101360.78
2023-01-04T05:10:36.839Z,101356.59
2023-01-04T05:13:06.017Z,101350.63
2023-01-04T05:15:36.411Z,101348.41
2023-01-04T05:18:03.272Z,101342.78
2023-01-04T05:20:29.949Z,101343.88
2023-01-04T05:22:56.683Z,101347.94
2023-01-04T05:25:23.965Z,101345.75
2023-01-04T05:27:50.892Z,101357.97
2023-01-04T05:30:37.035Z,101344.44
2023-01-04T05:33:04.385Z,101346.31
2023-01-04T05:35:31.157Z,101349.81
2023-01-04T05:37:58.136Z,101343.41
2023-01-04T05:40:25.000Z,101346.22
2023-01-04T05:42:52.524Z,101352.28
2023-01-04T05:45:21.144Z,101357.41
2023-01-04T05:47:52.551Z,101349.13
2023-01-04T05:50:21.381Z,101346.56
2023-01-04T05:52:49.011Z,101348.19
2023-01-04T05:55:16.014Z,101342.38
2023-01-04T05:57:43.327Z,101343.19
2023-01-04T06:00:11.540Z,101349.25
2023-01-04T06:02:42.247Z,101344.13
2023-01-04T06:05:10.647Z,101342.47
2023-01-04T06:07:38.627Z,101336.03
2023-01-04T06:10:08.099Z,101329.28
2023-01-04T06:12:34.965Z,101325.66
2023-01-04T06:15:02.053Z,101334.28
2023-01-04T06:17:30.315Z,101330.91
2023-01-04T06:19:57.100Z,101334.28
2023-01-04T06:22:24.020Z,101331.47
2023-01-04T06:24:50.760Z,101327.28
2023-01-04T06:27:17.553Z,101338.50
2023-01-04T06:29:44.408Z,101329.97
2023-01-04T06:32:11.332Z,101329.03
2023-01-04T06:34:38.091Z,101331.59
2023-01-04T06:37:06.051Z,101328.91
2023-01-04T06:39:32.956Z,101325.41
2023-01-04T06:42:06.297Z,101329.88
2023-01-04T06:44:33.240Z,101322.38
2023-01-04T06:46:59.997Z,101329.16
2023-01-04T06:49:26.732Z,101326.22
2023-01-04T06:51:53.468Z,101321.66
2023-01-04T06:54:20.231Z,101326.56
2023-01-04T06:56:46.991Z,101325.41
2023-01-04T06:59:13.762Z,101322.47
2023-01-04T07:01:40.645Z,101333.91
2023-01-04T07:04:08.192Z,101327.34
2023-01-04T07:06:34.986Z,101328.63
2023-01-04T07:09:01.765Z,101342.00
2023-01-04T07:11:28.579Z,101342.41
2023-01-04T07:13:55.415Z,101330.53
2023-01-04T07:16:22.292Z,101327.84
2023-01-04T07:18:49.106Z,101331.47
2023-01-04T07:21:15.944Z,101324.53
2023-01-04T07:23:42.782Z,101338.28
2023-01-04T07:26:09.597Z,101332.97
2023-01-04T07:28:54.659Z,101343.28
2023-01-04T07:31:21.605Z,101348.63
2023-01-04T07:33:50.879Z,101340.88
2023-01-04T07:36:17.744Z,101350.25
2023-01-04T07:38:44.661Z,101350.25
2023-01-04T07:41:11.494Z,101350.38
2023-01-04T07:43:38.247Z,101348.66
2023-01-04T07:46:05.021Z,101344.13
2023-01-04T07:48:31.740Z,101355.13
2023-01-04T07:50:58.514Z,101351.34
2023-01-04T07:53:25.223Z,101344.81
2023-01-04T07:55:57.143Z,101346.97
2023-01-04T07:58:24.192Z,101345.47
2023-01-04T08:00:51.311Z,101337.84
2023-01-04T08:03:18.124Z,101329.97
2023-01-04T08:05:45.017Z,101336.50
2023-01-04T08:08:11.906Z,101339.19
2023-01-04T08:10:38.840Z,101341.88
2023-01-04T08:13:05.699Z,101331.09
2023-01-04T08:15:33.444Z,101329.44
2023-01-04T08:18:00.591Z,101317.44
2023-01-04T08:20:27.521Z,101314.38
2023-01-04T08:22:54.551Z,101315.69
2023-01-04T08:25:21.423Z,101311.50
2023-01-04T08:27:48.748Z,101315.69
2023-01-04T08:30:15.577Z,101315.78
2023-01-04T08:32:42.375Z,101318.88
2023-01-04T08:35:09.451Z,101306.78
2023-01-04T08:37:36.256Z,101302.06
2023-01-04T08:40:03.472Z,101309.28
2023-01-04T08:42:31.732Z,101310.63
2023-01-04T08:45:01.387Z,101317.94
2023-01-04T08:47:32.772Z,101307.28
2023-01-04T08:50:03.460Z,101310.31
2023-01-04T08:52:34.734Z,101303.09
2023-01-04T08:55:04.367Z,101304.88
2023-01-04T08:57:35.305Z,101311.19
2023-01-04T09:00:02.416Z,101313.19
2023-01-04T09:02:30.690Z,101305.63
2023-01-04T09:05:03.957Z,101307.31
2023-01-04T09:07:31.895Z,101313.72
2023-01-04T09:10:00.772Z,101302.22
2023-01-04T09:12:27.680Z,101301.16
2023-01-04T09:14:55.029Z,101297.34
2023-01-04T09:17:22.972Z,101299.88
2023-01-04T09:19:49.819Z,101302.34
2023-01-04T09:22:16.723Z,101296.75
2023-01-04T09:24:43.540Z,101297.72
2023-01-04T09:27:10.253Z,101297.72
2023-01-04T09:29:37.011Z,101291.59
2023-01-04T09:32:03.891Z,101276.81
2023-01-04T09:34:30.790Z,101283.31
2023-01-04T09:36:57.701Z,101280.56
2023-01-04T09:39:26.334Z,101281.38
2023-01-04T09:42:06.719Z,101271.63
2023-01-04T09:47:57.368Z,101270.44
2023-01-04T09:50:37.892Z,101256.53
2023-01-04T09:53:45.779Z,101258.50
2023-01-04T09:56:26.601Z,101254.16
2023-01-04T09:58:54.627Z,101245.25
2023-01-04T10:01:25.590Z,101242.59
2023-01-04T10:04:11.108Z,101240.16
2023-01-04T10:06:38.302Z,101229.28
2023-01-04T10:09:11.883Z,101216.66
2023-01-04T10:12:08.929Z,101220.28
2023-01-04T10:15:08.511Z,101218.13
2023-01-04T10:21:34.082Z,101205.78
2023-01-04T10:24:45.623Z,101211.31
2023-01-04T10:27:43.304Z,101203.56
2023-01-04T10:30:25.422Z,101200.34
2023-01-04T10:33:07.626Z,101197.97
2023-01-04T10:35:36.802Z,101203.31
2023-01-04T10:38:10.410Z,101191.91
2023-01-04T10:40:40.223Z,101196.69
2023-01-04T10:44:09.516Z,101182.34
2023-01-04T10:46:40.886Z,101183.88
2023-01-04T10:49:35.388Z,101178.00
2023-01-04T10:52:16.955Z,101174.38
2023-01-04T10:54:57.574Z,101171.03
2023-01-04T10:57:30.839Z,101167.28
2023-01-04T10:59:57.482Z,101156.38
2023-01-04T11:02:38.229Z,101159.13
2023-01-04T11:05:33.390Z,101150.69
2023-01-04T11:08:16.122Z,101149.00
2023-01-04T11:11:00.443Z,101148.34
2023-01-04T11:13:28.323Z,101140.78
2023-01-04T11:15:56.373Z,101148.22
2023-01-04T11:18:23.631Z,101139.34
2023-01-04T11:20:51.273Z,101133.50
2023-01-04T11:23:20.352Z,101126.31
2023-01-04T11:26:00.491Z,101118.25
2023-01-04T11:28:54.972Z,101114.03
2023-01-04T11:31:45.605Z,101117.06
2023-01-04T11:34:12.813Z,101122.09
2023-01-04T11:36:47.533Z,101115.13
2023-01-04T11:39:21.562Z,101105.50
2023-01-04T11:42:06.118Z,101106.31
2023-01-04T11:44:35.283Z,101103.66
2023-01-04T11:47:15.632Z,101095.13
2023-01-04T11:49:42.564Z,101097.97
2023-01-04T11:52:33.418Z,101086.78
2023-01-04T11:55:21.734Z,101086.69
2023-01-04T11:58:13.139Z,101073.25
2023-01-04T12:00:56.982Z,101069.19
2023-01-04T12:03:40.198Z,101064.06
2023-01-04T12:06:25.046Z,101064.59
2023-01-04T12:08:51.932Z,101061.06
2023-01-04T12:11:32.025Z,101060.66
2023-01-04T12:14:00.237Z,101050.47
2023-01-04T12:16:47.415Z,101044.66
2023-01-04T12:19:16.963Z,101051.94
2023-01-04T12:21:47.441Z,101051.00
2023-01-04T12:24:22.338Z,101044.75
2023-01-04T12:26:50.573Z,101046.59
2023-01-04T12:29:23.335Z,101032.84
2023-01-04T12:32:05.534Z,101032.22
2023-01-04T12:34:34.239Z,101010.59
2023-01-04T12:37:05.594Z,101011.88
2023-01-04T12:39:45.036Z,101018.38
2023-01-04T12:42:15.944Z,101008.97
2023-01-04T12:44:51.916Z,101010.44
2023-01-04T12:47:45.015Z,101007.38
2023-01-04T12:50:26.556Z,101007.06
2023-01-04T12:53:28.202Z,101000.81
2023-01-04T12:55:55.443Z,100986.75
2023-01-04T12:59:06.900Z,100986.91
2023-01-04T13:01:27.536Z,100987.59
2023-01-04T13:04:05.194Z,100983.97
2023-01-04T13:06:41.959Z,100962.13
2023-01-04T13:09:23.966Z,100973.06
2023-01-04T13:11:56.862Z,100974.84
2023-01-04T13:14:48.295Z,100969.31
2023-01-04T13:17:23.894Z,100965.00
2023-01-04T13:19:51.047Z,100956.06
2023-01-04T13:22:34.063Z,100957.53
2023-01-04T13:25:03.009Z,100956.19
2023-01-04T13:27:29.870Z,100957.03
2023-01-04T13:29:56.689Z,100952.69
2023-01-04T13:32:46.950Z,100951.09
2023-01-04T13:35:19.657Z,100946.47
2023-01-04T13:37:49.603Z,100947.56
2023-01-04T13:40:35.957Z,100940.09
2023-01-04T13:43:15.126Z,100938.84
2023-01-04T13:46:07.079Z,100943.22
2023-01-04T13:48:39.172Z,100945.41
2023-01-04T13:51:36.271Z,100934.56
2023-01-04T13:54:07.017Z,100933.63
2023-01-04T13:56:35.124Z,100928.19
2023-01-04T13:59:04.776Z,100925.06
2023-01-04T14:01:42.632Z,100926.28
2023-01-04T14:04:21.268Z,100915.47
2023-01-04T14:06:52.989Z,100905.56
2023-01-04T14:09:24.230Z,100907.47
2023-01-04T14:12:07.685Z,100910.84
2023-01-04T14:14:38.076Z,100906.00
2023-01-04T14:17:18.550Z,100901.38
2023-01-04T14:19:58.473Z,100893.66
2023-01-04T14:22:42.416Z,100891.50
2023-01-04T14:25:40.824Z,100889.91
2023-01-04T14:28:24.582Z,100885.56
2023-01-04T14:31:00.422Z,100895.16
2023-01-04T14:33:36.768Z,100891.38
2023-01-04T14:36:07.774Z,100894.47
2023-01-04T14:38:57.228Z,100888.50
2023-01-04T14:41:33.451Z,100879.63
2023-01-04T14:44:00.229Z,100877.97
2023-01-04T14:46:28.750Z,100878.81
2023-01-04T14:48:55.985Z,100879.72
2023-01-04T14:51:30.563Z,100872.56
2023-01-04T14:53:57.255Z,100858.75
2023-01-04T14:56:26.645Z,100850.63
2023-01-04T14:58:53.546Z,100857.94
2023-01-04T15:01:20.369Z,100849.63
2023-01-04T15:03:47.272Z,100857.13
2023-01-04T15:06:14.249Z,100854.69
2023-01-04T15:08:41.015Z,100854.03
2023-01-04T15:11:07.849Z,100848.72
2023-01-04T15:13:39.991Z,100849.81
2023-01-04T15:16:07.777Z,100852.66
2023-01-04T15:18:34.655Z,100837.59
2023-01-04T15:21:02.377Z,100840.47
2023-01-04T15:23:29.185Z,100840.59
2023-01-04T15:25:57.627Z,100839.56
2023-01-04T15:28:26.429Z,100835.19
2023-01-04T15:30:53.346Z,100829.78
2023-01-04T15:33:20.208Z,100828.69
2023-01-04T15:35:47.677Z,100843.16
2023-01-04T15:38:18.388Z,100833.31
2023-01-04T15:40:45.468Z,100832.19
2023-01-04T15:43:12.187Z,100840.34
2023-01-04T15:45:39.743Z,100842.91
2023-01-04T15:48:08.389Z,100832.19
2023-01-04T15:50:37.398Z,100835.56
2023-01-04T15:53:04.982Z,100835.56
2023-01-04T15:55:36.400Z,100824.38
2023-01-04T15:58:06.461Z,100832.19
2023-01-04T16:00:33.218Z,100833.56
2023-01-04T16:03:00.150Z,100841.66
2023-01-04T16:05:26.983Z,100847.50
2023-01-04T16:07:53.711Z,100838.72
2023-01-04T16:10:20.564Z,100832.19
2023-01-04T16:12:53.087Z,100827.34
2023-01-04T16:15:24.221Z,100824.34
2023-01-04T16:17:51.130Z,100810.03
2023-01-04T16:20:19.272Z,100818.41
2023-01-04T16:22:46.575Z,100809.91
2023-01-04T16:25:14.148Z,100813.13
2023-01-04T16:27:41.419Z,100800.81
2023-01-04T16:30:13.653Z,100801.75
2023-01-04T16:32:45.512Z,100797.31
2023-01-04T16:35:12.819Z,100783.47
2023-01-04T16:37:43.393Z,100779.94
2023-01-04T16:40:11.011Z,100782.38
2023-01-04T16:42:38.844Z,100787.22
2023-01-04T16:45:06.640Z,100787.78
2023-01-04T16:47:40.471Z,100790.38
2023-01-04T16:50:07.486Z,100777.63
2023-01-04T16:52:34.504Z,100785.09
2023-01-04T16:55:01.837Z,100770.00
2023-01-04T16:57:30.464Z,100770.41
2023-01-04T16:59:57.329Z,100766.31
2023-01-04T17:02:24.809Z,100748.13
2023-01-04T17:04:57.038Z,100735.19
2023-01-04T17:07:25.380Z,100745.44
2023-01-04T17:09:52.196Z,100731.59
2023-01-04T17:17:53.503Z,100729.75
2023-01-04T17:20:20.261Z,100732.69
2023-01-04T17:22:47.043Z,100716.28
2023-01-04T17:25:15.175Z,100708.78
2023-01-04T17:27:41.940Z,100704.28
2023-01-04T17:30:09.546Z,100700.47
2023-01-04T17:32:37.556Z,100698.56
2023-01-04T17:35:04.562Z,100693.69
2023-01-04T17:37:31.546Z,100703.69
2023-01-04T17:39:58.295Z,100696.84
2023-01-04T17:42:25.084Z,100684.94
2023-01-04T17:44:52.146Z,100682.56
2023-01-04T17:47:19.472Z,100682.78
2023-01-04T17:49:46.340Z,100670.44
2023-01-04T17:52:20.106Z,100668.03
2023-01-04T17:54:49.106Z,100674.69
2023-01-04T17:57:15.924Z,100681.06
2023-01-04T17:59:45.649Z,100677.50
2023-01-04T18:02:12.597Z,100673.69
2023-01-04T18:04:39.449Z,100664.00
2023-01-04T18:07:06.362Z,100668.19
2023-01-04T18:09:33.232Z,100653.53
2023-01-04T18:12:00.114Z,100648.25
2023-01-04T18:14:27.867Z,100648.38
2023-01-04T18:16:58.773Z,100654.50
2023-01-04T18:19:28.430Z,100643.63
2023-01-04T18:21:55.994Z,100661.75
2023-01-04T18:24:35.845Z,100653.88
2023-01-04T18:29:51.278Z,100643.91
2023-01-04T18:32:18.239Z,100631.53
2023-01-04T18:34:45.053Z,100630.91
2023-01-04T18:37:12.316Z,100630.84
2023-01-04T18:39:39.246Z,100621.69
2023-01-04T18:42:07.284Z,100624.91
2023-01-04T18:44:36.059Z,100627.03
2023-01-04T18:47:04.822Z,100626.56
2023-01-04T18:49:32.088Z,100610.94
2023-01-04T18:51:58.886Z,100605.66
2023-01-04T18:54:25.700Z,100603.22
2023-01-04T18:56:58.704Z,100605.19
2023-01-04T18:59:28.317Z,100599.41
2023-01-04T19:02:00.898Z,100592.66
2023-01-04T19:04:35.149Z,100586.38
2023-01-04T19:07:02.489Z,100583.03
2023-01-04T19:09:30.789Z,100578.34
2023-01-04T19:11:57.574Z,100566.44
2023-01-04T19:14:24.304Z,100573.19
2023-01-04T19:16:53.188Z,100565.81
2023-01-04T19:19:20.372Z,100561.94
2023-01-04T19:21:47.159Z,100550.00
2023-01-04T19:24:13.910Z,100557.13
2023-01-04T19:26:40.805Z,100546.13
2023-01-04T19:29:08.662Z,100546.81
2023-01-04T19:31:35.797Z,100541.28
2023-01-04T19:34:02.627Z,100539.53
2023-01-04T19:36:30.498Z,100529.34
2023-01-04T19:38:57.706Z,100530.66
2023-01-04T19:41:33.386Z,100526.16
2023-01-04T19:44:06.592Z,100528.41
2023-01-04T19:46:33.779Z,100524.84
2023-01-04T19:49:03.618Z,100520.03
2023-01-04T19:51:30.917Z,100517.75
2023-01-04T19:53:57.669Z,100512.44
2023-01-04T19:56:24.520Z,100504.06
2023-01-04T19:58:51.314Z,100491.47
2023-01-04T20:01:20.133Z,100493.75
2023-01-04T20:03:47.877Z,100489.72
2023-01-04T20:06:15.615Z,100480.81
2023-01-04T20:08:43.138Z,100474.06
2023-01-04T20:11:10.575Z,100472.13
2023-01-04T20:13:38.820Z,100472.91
2023-01-04T20:16:06.523Z,100472.47
2023-01-04T20:18:34.371Z,100481.34
2023-01-04T20:21:01.375Z,100465.84
2023-01-04T20:23:28.220Z,100479.69
2023-01-04T20:25:55.732Z,100473.91
2023-01-04T20:28:24.360Z,100467.47
2023-01-04T20:31:02.356Z,100466.00
2023-01-04T20:33:30.411Z,100467.28
2023-01-04T20:35:57.576Z,100477.59
2023-01-04T20:38:24.484Z,100473.09
2023-01-04T20:40:51.277Z,100470.50
2023-01-04T20:43:33.147Z,100458.44
2023-01-04T20:46:01.181Z,100453.72
2023-01-04T20:48:28.739Z,100442.16
2023-01-04T20:50:56.076Z,100433.25
2023-01-04T20:53:23.234Z,100432.28
2023-01-04T20:55:50.222Z,100426.78
2023-01-04T20:58:17.626Z,100425.81
2023-01-04T21:00:46.439Z,100404.38
2023-01-04T21:03:13.604Z,100413.56
2023-01-04T21:05:43.487Z,100406.78
2023-01-04T21:08:11.793Z,100409.06
2023-01-04T21:10:42.155Z,100413.25
2023-01-04T21:13:10.597Z,100404.19
2023-01-04T21:15:39.127Z,100408.03
2023-01-04T21:18:07.532Z,100416.75
2023-01-04T21:20:38.618Z,100400.09
2023-01-04T21:23:05.350Z,100409.81
2023-01-04T21:25:32.087Z,100403.13
2023-01-04T21:28:00.762Z,100413.19
2023-01-04T21:30:27.822Z,100402.16
2023-01-04T21:32:58.529Z,100410.03
2023-01-04T21:35:29.003Z,100418.75
2023-01-04T21:37:55.790Z,100416.44
2023-01-04T21:40:22.604Z,100417.38
2023-01-04T21:42:49.323Z,100414.28
2023-01-04T21:45:16.193Z,100408.78
2023-01-04T21:47:42.993Z,100407.03
2023-01-04T21:50:16.540Z,100412.22
2023-01-04T21:52:43.953Z,100388.09
2023-01-04T21:55:11.045Z,100397.13
2023-01-04T21:57:39.176Z,100395.19
2023-01-04T22:00:08.475Z,100387.91
2023-01-04T22:02:35.755Z,100386.75
2023-01-04T22:05:02.863Z,100381.25
2023-01-04T22:07:29.963Z,100379.28
2023-01-04T22:09:57.843Z,100372.16
2023-01-04T22:12:24.766Z,100371.19
2023-01-04T22:14:51.691Z,100367.81
2023-01-04T22:17:18.507Z,100359.25
2023-01-04T22:19:45.477Z,100364.41
2023-01-04T22:22:12.389Z,100350.50
2023-01-04T22:24:39.298Z,100358.25
2023-01-04T22:27:06.100Z,100353.56
2023-01-04T22:29:32.922Z,100350.44
2023-01-04T22:32:00.169Z,100352.06
2023-01-04T22:34:28.123Z,100351.72
2023-01-04T22:36:55.100Z,100344.59
2023-01-04T22:39:21.937Z,100353.78
2023-01-04T22:41:48.627Z,100342.63
2023-01-04T22:44:15.531Z,100338.28
2023-01-04T22:46:42.420Z,100336.66
2023-01-04T22:49:10.418Z,100339.41
2023-01-04T22:51:37.150Z,100346.19
2023-01-04T22:54:05.805Z,100341.50
2023-01-04T22:56:32.754Z,100333.53
2023-01-04T22:58:59.601Z,100331.94
2023-01-04T23:01:30.015Z,100332.28
2023-01-04T23:03:58.527Z,100323.56
2023-01-04T23:06:27.076Z,100324.34
2023-01-04T23:09:03.115Z,100322.13
2023-01-04T23:11:31.299Z,100314.66
2023-01-04T23:13:58.668Z,100315.41
2023-01-04T23:16:32.036Z,100305.72
2023-01-04T23:19:00.250Z,100300.91
2023-01-04T23:21:27.088Z,100290.91
2023-01-04T23:23:53.844Z,100293.16
2023-01-04T23:26:22.967Z,100289.75
2023-01-04T23:28:50.730Z,100281.78
2023-01-04T23:31:20.597Z,100277.97
2023-01-04T23:33:47.842Z,100270.13
2023-01-04T23:36:20.314Z,100272.50
2023-01-04T23:38:51.814Z,100268.13
2023-01-04T23:41:19.355Z,100270.41
2023-01-04T23:43:46.493Z,100278.34
2023-01-04T23:46:16.220Z,100276.91
2023-01-04T23:48:43.616Z,100281.91
2023-01-04T23:51:12.158Z,100273.78
2023-01-04T23:53:38.999Z,100254.72
2023-01-04T23:56:08.298Z,100272.63
2023-01-04T23:58:35.398Z,100260.50
